sensor_id;sensor_type;location;lat;lon;timestamp;temperature;humidity
30047;DHT22;16878;52.542;13.426;2022-12-20T00:00:48;4.00;99.90
30047;DHT22;16878;52.542;13.426;2022-12-20T00:03:13;4.00;99.90
30047;DHT22;16878;52.542;13.426;2022-12-20T00:05:40;4.00;99.90
30047;DHT22;16878;52.542;13.426;2022-12-20T00:08:06;4.00;99.90
30047;DHT22;16878;52.542;13.426;2022-12-20T00:10:35;4.00;99.90
30047;DHT22;16878;52.542;13.426;2022-12-20T00:13:00;4.00;99.90
30047;DHT22;16878;52.542;13.426;2022-12-20T00:15:26;4.00;99.90
30047;DHT22;16878;52.542;13.426;2022-12-20T00:17:52;4.00;99.90
30047;DHT22;16878;52.542;13.426;2022-12-20T00:20:17;4.00;99.90
30047;DHT22;16878;52.542;13.426;2022-12-20T00:22:43;4.10;99.90
30047;DHT22;16878;52.542;13.426;2022-12-20T00:25:10;4.10;99.90
30047;DHT22;16878;52.542;13.426;2022-12-20T00:27:35;4.10;99.90
30047;DHT22;16878;52.542;13.426;2022-12-20T00:30:01;4.00;99.90
30047;DHT22;16878;52.542;13.426;2022-12-20T00:32:27;4.10;99.90
30047;DHT22;16878;52.542;13.426;2022-12-20T00:34:52;4.10;99.90
30047;DHT22;16878;52.542;13.426;2022-12-20T00:37:18;4.10;99.90
30047;DHT22;16878;52.542;13.426;2022-12-20T00:39:43;4.10;99.90
30047;DHT22;16878;52.542;13.426;2022-12-20T00:42:09;4.10;99.90
30047;DHT22;16878;52.542;13.426;2022-12-20T00:44:34;4.10;99.90
30047;DHT22;16878;52.542;13.426;2022-12-20T00:47:00;4.10;99.90
30047;DHT22;16878;52.542;13.426;2022-12-20T00:49:25;4.10;99.90
30047;DHT22;16878;52.542;13.426;2022-12-20T00:51:54;4.10;99.90
30047;DHT22;16878;52.542;13.426;2022-12-20T00:54:20;4.10;99.90
30047;DHT22;16878;52.542;13.426;2022-12-20T00:56:45;4.10;99.90
30047;DHT22;16878;52.542;13.426;2022-12-20T00:59:11;4.10;99.90
30047;DHT22;16878;52.542;13.426;2022-12-20T01:01:36;4.10;99.90
30047;DHT22;16878;52.542;13.426;2022-12-20T01:04:02;4.10;99.90
30047;DHT22;16878;52.542;13.426;2022-12-20T01:06:28;4.10;99.90
30047;DHT22;16878;52.542;13.426;2022-12-20T01:08:54;4.20;99.90
30047;DHT22;16878;52.542;13.426;2022-12-20T01:11:21;4.20;99.90
30047;DHT22;16878;52.542;13.426;2022-12-20T01:13:48;4.20;99.90
30047;DHT22;16878;52.542;13.426;2022-12-20T01:16:18;4.20;99.90
30047;DHT22;16878;52.542;13.426;2022-12-20T01:18:44;4.10;99.90
30047;DHT22;16878;52.542;13.426;2022-12-20T01:21:11;4.10;99.90
30047;DHT22;16878;52.542;13.426;2022-12-20T01:23:37;4.20;99.90
30047;DHT22;16878;52.542;13.426;2022-12-20T01:26:03;4.20;99.90
30047;DHT22;16878;52.542;13.426;2022-12-20T01:28:29;4.20;99.90
30047;DHT22;16878;52.542;13.426;2022-12-20T01:30:58;4.20;99.90
30047;DHT22;16878;52.542;13.426;2022-12-20T01:33:24;4.20;99.90
30047;DHT22;16878;52.542;13.426;2022-12-20T01:35:56;4.20;99.90
30047;DHT22;16878;52.542;13.426;2022-12-20T01:38:22;4.20;99.90
30047;DHT22;16878;52.542;13.426;2022-12-20T01:40:48;4.30;99.90
30047;DHT22;16878;52.542;13.426;2022-12-20T01:43:14;4.30;99.90
30047;DHT22;16878;52.542;13.426;2022-12-20T01:45:41;4.30;99.90
30047;DHT22;16878;52.542;13.426;2022-12-20T01:48:06;4.30;99.90
30047;DHT22;16878;52.542;13.426;2022-12-20T01:50:33;4.30;99.90
30047;DHT22;16878;52.542;13.426;2022-12-20T01:52:59;4.30;99.90
30047;DHT22;16878;52.542;13.426;2022-12-20T01:55:26;4.30;99.90
30047;DHT22;16878;52.542;13.426;2022-12-20T02:00:18;4.20;99.90
30047;DHT22;16878;52.542;13.426;2022-12-20T02:02:45;4.20;99.90
30047;DHT22;16878;52.542;13.426;2022-12-20T02:05:12;4.10;99.90
30047;DHT22;16878;52.542;13.426;2022-12-20T02:07:39;4.10;99.90
30047;DHT22;16878;52.542;13.426;2022-12-20T02:10:06;4.10;99.90
30047;DHT22;16878;52.542;13.426;2022-12-20T02:12:42;4.10;99.90
30047;DHT22;16878;52.542;13.426;2022-12-20T02:15:24;4.10;99.90
30047;DHT22;16878;52.542;13.426;2022-12-20T02:31:02;4.20;99.90
30047;DHT22;16878;52.542;13.426;2022-12-20T02:33:29;4.20;99.90
30047;DHT22;16878;52.542;13.426;2022-12-20T02:35:54;4.30;99.90
30047;DHT22;16878;52.542;13.426;2022-12-20T02:38:33;4.30;99.90
30047;DHT22;16878;52.542;13.426;2022-12-20T02:43:37;4.40;99.90
30047;DHT22;16878;52.542;13.426;2022-12-20T02:46:21;4.40;99.90
30047;DHT22;16878;52.542;13.426;2022-12-20T02:48:48;4.40;99.90
30047;DHT22;16878;52.542;13.426;2022-12-20T02:51:15;4.30;99.90
30047;DHT22;16878;52.542;13.426;2022-12-20T02:53:42;4.30;99.90
30047;DHT22;16878;52.542;13.426;2022-12-20T02:56:11;4.40;99.90
30047;DHT22;16878;52.542;13.426;2022-12-20T03:01:16;4.40;99.90
30047;DHT22;16878;52.542;13.426;2022-12-20T03:03:42;4.40;99.90
30047;DHT22;16878;52.542;13.426;2022-12-20T03:06:08;4.50;99.90
30047;DHT22;16878;52.542;13.426;2022-12-20T03:08:33;4.50;99.90
30047;DHT22;16878;52.542;13.426;2022-12-20T03:10:59;4.50;99.90
30047;DHT22;16878;52.542;13.426;2022-12-20T03:13:25;4.50;99.90
30047;DHT22;16878;52.542;13.426;2022-12-20T03:15:51;4.60;99.90
30047;DHT22;16878;52.542;13.426;2022-12-20T03:18:17;4.60;99.90
30047;DHT22;16878;52.542;13.426;2022-12-20T03:20:43;4.60;99.90
30047;DHT22;16878;52.542;13.426;2022-12-20T03:23:08;4.60;99.90
30047;DHT22;16878;52.542;13.426;2022-12-20T03:25:34;4.60;99.90
30047;DHT22;16878;52.542;13.426;2022-12-20T03:28:00;4.60;99.90
30047;DHT22;16878;52.542;13.426;2022-12-20T03:30:25;4.70;99.90
30047;DHT22;16878;52.542;13.426;2022-12-20T03:32:51;4.70;99.90
30047;DHT22;16878;52.542;13.426;2022-12-20T03:35:16;4.70;99.90
30047;DHT22;16878;52.542;13.426;2022-12-20T03:37:42;4.70;99.90
30047;DHT22;16878;52.542;13.426;2022-12-20T03:40:08;4.80;99.90
30047;DHT22;16878;52.542;13.426;2022-12-20T03:42:34;4.80;99.90
30047;DHT22;16878;52.542;13.426;2022-12-20T03:44:59;4.80;99.90
30047;DHT22;16878;52.542;13.426;2022-12-20T03:47:25;4.80;99.90
30047;DHT22;16878;52.542;13.426;2022-12-20T03:49:50;4.80;99.90
30047;DHT22;16878;52.542;13.426;2022-12-20T03:52:16;4.80;99.90
30047;DHT22;16878;52.542;13.426;2022-12-20T03:54:42;4.80;99.90
30047;DHT22;16878;52.542;13.426;2022-12-20T03:57:07;4.80;99.90
30047;DHT22;16878;52.542;13.426;2022-12-20T03:59:33;4.90;99.90
30047;DHT22;16878;52.542;13.426;2022-12-20T04:02:00;4.80;99.90
30047;DHT22;16878;52.542;13.426;2022-12-20T04:04:25;4.70;99.90
30047;DHT22;16878;52.542;13.426;2022-12-20T04:06:51;4.70;99.90
30047;DHT22;16878;52.542;13.426;2022-12-20T04:09:16;4.60;99.90
30047;DHT22;16878;52.542;13.426;2022-12-20T04:11:42;4.60;99.90
30047;DHT22;16878;52.542;13.426;2022-12-20T04:14:07;4.70;99.90
30047;DHT22;16878;52.542;13.426;2022-12-20T04:16:33;4.70;99.90
30047;DHT22;16878;52.542;13.426;2022-12-20T04:18:58;4.60;99.90
30047;DHT22;16878;52.542;13.426;2022-12-20T04:21:25;4.60;99.90
30047;DHT22;16878;52.542;13.426;2022-12-20T04:23:51;4.50;99.90
30047;DHT22;16878;52.542;13.426;2022-12-20T04:26:17;4.50;99.90
30047;DHT22;16878;52.542;13.426;2022-12-20T04:28:42;4.50;99.90
30047;DHT22;16878;52.542;13.426;2022-12-20T04:31:08;4.40;99.90
30047;DHT22;16878;52.542;13.426;2022-12-20T04:33:34;4.40;99.90
30047;DHT22;16878;52.542;13.426;2022-12-20T04:36:00;4.40;99.90
30047;DHT22;16878;52.542;13.426;2022-12-20T04:38:26;4.40;99.90
30047;DHT22;16878;52.542;13.426;2022-12-20T04:40:52;4.30;99.90
30047;DHT22;16878;52.542;13.426;2022-12-20T04:43:18;4.30;99.90
30047;DHT22;16878;52.542;13.426;2022-12-20T04:45:45;4.30;99.90
30047;DHT22;16878;52.542;13.426;2022-12-20T04:48:11;4.30;99.90
30047;DHT22;16878;52.542;13.426;2022-12-20T04:50:37;4.30;99.90
30047;DHT22;16878;52.542;13.426;2022-12-20T04:53:02;4.30;99.90
30047;DHT22;16878;52.542;13.426;2022-12-20T04:55:46;4.30;99.90
30047;DHT22;16878;52.542;13.426;2022-12-20T04:58:12;4.30;99.90
30047;DHT22;16878;52.542;13.426;2022-12-20T05:00:37;4.30;99.90
30047;DHT22;16878;52.542;13.426;2022-12-20T05:03:03;4.20;99.90
30047;DHT22;16878;52.542;13.426;2022-12-20T05:05:28;4.20;99.90
30047;DHT22;16878;52.542;13.426;2022-12-20T05:07:54;4.20;99.90
30047;DHT22;16878;52.542;13.426;2022-12-20T05:10:20;4.10;99.90
30047;DHT22;16878;52.542;13.426;2022-12-20T05:12:45;4.10;99.90
30047;DHT22;16878;52.542;13.426;2022-12-20T05:15:11;4.10;99.90
30047;DHT22;16878;52.542;13.426;2022-12-20T05:17:36;4.10;99.90
30047;DHT22;16878;52.542;13.426;2022-12-20T05:20:03;4.20;99.90
30047;DHT22;16878;52.542;13.426;2022-12-20T05:22:28;4.20;99.90
30047;DHT22;16878;52.542;13.426;2022-12-20T05:25:12;4.20;99.90
30047;DHT22;16878;52.542;13.426;2022-12-20T05:27:57;4.30;99.90
30047;DHT22;16878;52.542;13.426;2022-12-20T05:30:23;4.30;99.90
30047;DHT22;16878;52.542;13.426;2022-12-20T05:32:48;4.30;99.90
30047;DHT22;16878;52.542;13.426;2022-12-20T05:35:14;4.30;99.90
30047;DHT22;16878;52.542;13.426;2022-12-20T05:37:39;4.30;99.90
30047;DHT22;16878;52.542;13.426;2022-12-20T05:40:06;4.40;99.90
30047;DHT22;16878;52.542;13.426;2022-12-20T05:42:31;4.50;99.90
30047;DHT22;16878;52.542;13.426;2022-12-20T05:44:57;4.50;99.90
30047;DHT22;16878;52.542;13.426;2022-12-20T05:47:22;4.50;99.90
30047;DHT22;16878;52.542;13.426;2022-12-20T05:49:51;4.60;99.90
30047;DHT22;16878;52.542;13.426;2022-12-20T05:52:16;4.60;99.90
30047;DHT22;16878;52.542;13.426;2022-12-20T05:54:42;4.50;99.90
30047;DHT22;16878;52.542;13.426;2022-12-20T05:57:08;4.50;99.90
30047;DHT22;16878;52.542;13.426;2022-12-20T05:59:33;4.60;99.90
30047;DHT22;16878;52.542;13.426;2022-12-20T06:01:59;4.60;99.90
30047;DHT22;16878;52.542;13.426;2022-12-20T06:04:24;4.60;99.90
30047;DHT22;16878;52.542;13.426;2022-12-20T06:06:50;4.70;99.90
30047;DHT22;16878;52.542;13.426;2022-12-20T06:09:16;4.70;99.90
30047;DHT22;16878;52.542;13.426;2022-12-20T06:11:42;4.80;99.90
30047;DHT22;16878;52.542;13.426;2022-12-20T06:14:07;4.80;99.90
30047;DHT22;16878;52.542;13.426;2022-12-20T06:16:36;4.80;99.90
30047;DHT22;16878;52.542;13.426;2022-12-20T06:19:01;4.90;99.90
30047;DHT22;16878;52.542;13.426;2022-12-20T06:21:27;4.90;99.90
30047;DHT22;16878;52.542;13.426;2022-12-20T06:23:53;4.90;99.90
30047;DHT22;16878;52.542;13.426;2022-12-20T06:26:19;4.90;99.90
30047;DHT22;16878;52.542;13.426;2022-12-20T06:28:47;4.90;99.90
30047;DHT22;16878;52.542;13.426;2022-12-20T06:31:16;5.00;99.90
30047;DHT22;16878;52.542;13.426;2022-12-20T06:33:42;5.00;99.90
30047;DHT22;16878;52.542;13.426;2022-12-20T06:36:07;5.00;99.90
30047;DHT22;16878;52.542;13.426;2022-12-20T06:38:33;5.00;99.90
30047;DHT22;16878;52.542;13.426;2022-12-20T06:40:58;5.10;99.90
30047;DHT22;16878;52.542;13.426;2022-12-20T06:43:24;5.10;99.90
30047;DHT22;16878;52.542;13.426;2022-12-20T06:45:49;5.10;99.90
30047;DHT22;16878;52.542;13.426;2022-12-20T06:48:15;5.10;99.90
30047;DHT22;16878;52.542;13.426;2022-12-20T06:50:40;5.10;99.90
30047;DHT22;16878;52.542;13.426;2022-12-20T06:53:06;5.10;99.90
30047;DHT22;16878;52.542;13.426;2022-12-20T06:55:32;5.10;99.90
30047;DHT22;16878;52.542;13.426;2022-12-20T06:57:57;5.10;99.90
30047;DHT22;16878;52.542;13.426;2022-12-20T07:00:23;5.10;99.90
30047;DHT22;16878;52.542;13.426;2022-12-20T07:02:48;5.20;99.90
30047;DHT22;16878;52.542;13.426;2022-12-20T07:05:14;5.20;99.90
30047;DHT22;16878;52.542;13.426;2022-12-20T07:07:40;5.10;99.90
30047;DHT22;16878;52.542;13.426;2022-12-20T07:10:05;5.10;99.90
30047;DHT22;16878;52.542;13.426;2022-12-20T07:12:31;5.10;99.90
30047;DHT22;16878;52.542;13.426;2022-12-20T07:14:58;5.10;99.90
30047;DHT22;16878;52.542;13.426;2022-12-20T07:17:23;5.10;99.90
30047;DHT22;16878;52.542;13.426;2022-12-20T07:19:49;5.20;99.90
30047;DHT22;16878;52.542;13.426;2022-12-20T07:22:18;5.10;99.90
30047;DHT22;16878;52.542;13.426;2022-12-20T07:24:44;5.10;99.90
30047;DHT22;16878;52.542;13.426;2022-12-20T07:27:09;5.10;99.90
30047;DHT22;16878;52.542;13.426;2022-12-20T07:29:35;5.20;99.90
30047;DHT22;16878;52.542;13.426;2022-12-20T07:32:04;5.20;99.90
30047;DHT22;16878;52.542;13.426;2022-12-20T07:34:30;5.20;99.90
30047;DHT22;16878;52.542;13.426;2022-12-20T07:36:55;5.20;99.90
30047;DHT22;16878;52.542;13.426;2022-12-20T07:39:21;5.20;99.90
30047;DHT22;16878;52.542;13.426;2022-12-20T07:41:47;5.30;99.90
30047;DHT22;16878;52.542;13.426;2022-12-20T07:44:13;5.30;99.90
30047;DHT22;16878;52.542;13.426;2022-12-20T07:46:39;5.40;99.90
30047;DHT22;16878;52.542;13.426;2022-12-20T07:49:04;5.40;99.90
30047;DHT22;16878;52.542;13.426;2022-12-20T07:51:31;5.40;99.90
30047;DHT22;16878;52.542;13.426;2022-12-20T07:54:02;5.40;99.90
30047;DHT22;16878;52.542;13.426;2022-12-20T07:56:30;5.40;99.90
30047;DHT22;16878;52.542;13.426;2022-12-20T07:58:57;5.40;99.90
30047;DHT22;16878;52.542;13.426;2022-12-20T08:01:26;5.40;99.90
30047;DHT22;16878;52.542;13.426;2022-12-20T08:03:56;5.50;99.90
30047;DHT22;16878;52.542;13.426;2022-12-20T08:06:24;5.50;99.90
30047;DHT22;16878;52.542;13.426;2022-12-20T08:08:50;5.50;99.90
30047;DHT22;16878;52.542;13.426;2022-12-20T08:11:17;5.50;99.90
30047;DHT22;16878;52.542;13.426;2022-12-20T08:13:45;5.50;99.90
30047;DHT22;16878;52.542;13.426;2022-12-20T08:16:11;5.50;99.90
30047;DHT22;16878;52.542;13.426;2022-12-20T08:18:36;5.50;99.90
30047;DHT22;16878;52.542;13.426;2022-12-20T08:21:02;5.60;99.90
30047;DHT22;16878;52.542;13.426;2022-12-20T08:23:27;5.60;99.90
30047;DHT22;16878;52.542;13.426;2022-12-20T08:25:53;5.60;99.90
30047;DHT22;16878;52.542;13.426;2022-12-20T08:28:18;5.60;99.90
30047;DHT22;16878;52.542;13.426;2022-12-20T08:30:50;5.60;99.90
30047;DHT22;16878;52.542;13.426;2022-12-20T08:33:15;5.60;99.90
30047;DHT22;16878;52.542;13.426;2022-12-20T08:35:41;5.70;99.90
30047;DHT22;16878;52.542;13.426;2022-12-20T08:38:06;5.70;99.90
30047;DHT22;16878;52.542;13.426;2022-12-20T08:40:32;5.70;99.90
30047;DHT22;16878;52.542;13.426;2022-12-20T08:42:57;5.70;99.90
30047;DHT22;16878;52.542;13.426;2022-12-20T08:45:23;5.70;99.90
30047;DHT22;16878;52.542;13.426;2022-12-20T08:47:48;5.70;99.90
30047;DHT22;16878;52.542;13.426;2022-12-20T08:50:14;5.80;99.90
30047;DHT22;16878;52.542;13.426;2022-12-20T08:52:40;5.80;99.90
30047;DHT22;16878;52.542;13.426;2022-12-20T08:55:05;5.80;99.90
30047;DHT22;16878;52.542;13.426;2022-12-20T08:57:31;5.90;99.90
30047;DHT22;16878;52.542;13.426;2022-12-20T08:59:56;5.90;99.90
30047;DHT22;16878;52.542;13.426;2022-12-20T09:02:22;5.90;99.90
30047;DHT22;16878;52.542;13.426;2022-12-20T09:04:48;6.00;99.90
30047;DHT22;16878;52.542;13.426;2022-12-20T09:07:13;6.00;99.90
30047;DHT22;16878;52.542;13.426;2022-12-20T09:09:39;6.00;99.90
30047;DHT22;16878;52.542;13.426;2022-12-20T09:12:04;6.00;99.90
30047;DHT22;16878;52.542;13.426;2022-12-20T09:14:31;6.10;99.90
30047;DHT22;16878;52.542;13.426;2022-12-20T09:16:57;6.00;99.90
30047;DHT22;16878;52.542;13.426;2022-12-20T09:19:23;6.00;99.90
30047;DHT22;16878;52.542;13.426;2022-12-20T09:21:48;6.10;99.90
30047;DHT22;16878;52.542;13.426;2022-12-20T09:24:14;6.10;99.90
30047;DHT22;16878;52.542;13.426;2022-12-20T09:26:39;6.20;99.90
30047;DHT22;16878;52.542;13.426;2022-12-20T09:29:05;6.20;99.90
30047;DHT22;16878;52.542;13.426;2022-12-20T09:31:30;6.30;99.90
30047;DHT22;16878;52.542;13.426;2022-12-20T09:33:57;6.30;99.90
30047;DHT22;16878;52.542;13.426;2022-12-20T09:36:23;6.40;99.90
30047;DHT22;16878;52.542;13.426;2022-12-20T09:38:49;6.40;99.90
30047;DHT22;16878;52.542;13.426;2022-12-20T09:41:25;6.50;99.90
30047;DHT22;16878;52.542;13.426;2022-12-20T09:43:52;6.60;99.90
30047;DHT22;16878;52.542;13.426;2022-12-20T09:46:18;6.70;99.90
30047;DHT22;16878;52.542;13.426;2022-12-20T09:48:44;6.80;99.90
30047;DHT22;16878;52.542;13.426;2022-12-20T09:51:15;7.00;99.90
30047;DHT22;16878;52.542;13.426;2022-12-20T09:56:15;7.20;99.90
30047;DHT22;16878;52.542;13.426;2022-12-20T09:58:49;7.20;99.90
30047;DHT22;16878;52.542;13.426;2022-12-20T10:01:21;7.20;99.90
30047;DHT22;16878;52.542;13.426;2022-12-20T10:03:49;7.10;99.90
30047;DHT22;16878;52.542;13.426;2022-12-20T10:08:49;7.20;99.90
30047;DHT22;16878;52.542;13.426;2022-12-20T10:11:27;7.10;99.90
30047;DHT22;16878;52.542;13.426;2022-12-20T10:13:59;7.10;99.90
30047;DHT22;16878;52.542;13.426;2022-12-20T10:24:10;7.30;99.90
30047;DHT22;16878;52.542;13.426;2022-12-20T10:26:37;7.40;99.90
30047;DHT22;16878;52.542;13.426;2022-12-20T10:29:03;7.40;99.90
30047;DHT22;16878;52.542;13.426;2022-12-20T10:31:29;7.50;99.90
30047;DHT22;16878;52.542;13.426;2022-12-20T10:33:54;7.50;99.90
30047;DHT22;16878;52.542;13.426;2022-12-20T10:36:30;7.50;99.90
30047;DHT22;16878;52.542;13.426;2022-12-20T10:38:57;7.40;99.90
30047;DHT22;16878;52.542;13.426;2022-12-20T10:41:24;7.40;99.90
30047;DHT22;16878;52.542;13.426;2022-12-20T10:43:52;7.30;99.90
30047;DHT22;16878;52.542;13.426;2022-12-20T10:46:18;7.30;99.90
30047;DHT22;16878;52.542;13.426;2022-12-20T10:48:44;7.30;99.90
30047;DHT22;16878;52.542;13.426;2022-12-20T10:54:01;7.40;99.90
30047;DHT22;16878;52.542;13.426;2022-12-20T10:58:55;7.50;99.90
30047;DHT22;16878;52.542;13.426;2022-12-20T11:01:22;7.60;99.90
30047;DHT22;16878;52.542;13.426;2022-12-20T11:03:52;7.60;99.90
30047;DHT22;16878;52.542;13.426;2022-12-20T11:06:20;7.60;99.90
30047;DHT22;16878;52.542;13.426;2022-12-20T11:08:46;7.60;99.90
30047;DHT22;16878;52.542;13.426;2022-12-20T11:13:38;7.70;99.90
30047;DHT22;16878;52.542;13.426;2022-12-20T11:16:04;7.70;99.90
30047;DHT22;16878;52.542;13.426;2022-12-20T11:31:29;7.70;99.90
30047;DHT22;16878;52.542;13.426;2022-12-20T11:34:02;7.70;99.90
30047;DHT22;16878;52.542;13.426;2022-12-20T11:36:37;7.70;99.90
30047;DHT22;16878;52.542;13.426;2022-12-20T11:39:08;7.80;99.90
30047;DHT22;16878;52.542;13.426;2022-12-20T11:41:41;7.80;99.90
30047;DHT22;16878;52.542;13.426;2022-12-20T11:44:15;7.80;99.90
30047;DHT22;16878;52.542;13.426;2022-12-20T11:52:24;7.90;99.90
30047;DHT22;16878;52.542;13.426;2022-12-20T11:54:27;7.90;99.90
30047;DHT22;16878;52.542;13.426;2022-12-20T11:56:57;7.90;99.90
30047;DHT22;16878;52.542;13.426;2022-12-20T11:59:34;7.90;99.90
30047;DHT22;16878;52.542;13.426;2022-12-20T12:02:16;7.80;99.90
30047;DHT22;16878;52.542;13.426;2022-12-20T12:04:55;7.80;99.90
30047;DHT22;16878;52.542;13.426;2022-12-20T12:07:24;7.90;99.90
30047;DHT22;16878;52.542;13.426;2022-12-20T12:12:24;8.00;99.90
30047;DHT22;16878;52.542;13.426;2022-12-20T12:15:15;8.00;99.90
30047;DHT22;16878;52.542;13.426;2022-12-20T12:20:30;8.00;99.90
30047;DHT22;16878;52.542;13.426;2022-12-20T12:23:01;8.00;99.90
30047;DHT22;16878;52.542;13.426;2022-12-20T12:25:27;8.00;99.90
30047;DHT22;16878;52.542;13.426;2022-12-20T12:27:53;8.00;99.90
30047;DHT22;16878;52.542;13.426;2022-12-20T12:30:18;8.00;99.90
30047;DHT22;16878;52.542;13.426;2022-12-20T12:32:54;7.90;99.90
30047;DHT22;16878;52.542;13.426;2022-12-20T12:43:18;7.90;99.90
30047;DHT22;16878;52.542;13.426;2022-12-20T12:45:47;7.90;99.90
30047;DHT22;16878;52.542;13.426;2022-12-20T12:48:18;7.90;99.90
30047;DHT22;16878;52.542;13.426;2022-12-20T12:50:47;7.90;99.90
30047;DHT22;16878;52.542;13.426;2022-12-20T12:53:20;7.90;99.90
30047;DHT22;16878;52.542;13.426;2022-12-20T12:55:50;7.90;99.90
30047;DHT22;16878;52.542;13.426;2022-12-20T13:03:14;7.80;99.90
30047;DHT22;16878;52.542;13.426;2022-12-20T13:05:41;7.80;99.90
30047;DHT22;16878;52.542;13.426;2022-12-20T13:08:15;7.80;99.90
30047;DHT22;16878;52.542;13.426;2022-12-20T13:13:19;7.70;99.90
30047;DHT22;16878;52.542;13.426;2022-12-20T13:15:46;7.70;99.90
30047;DHT22;16878;52.542;13.426;2022-12-20T13:20:37;7.70;99.90
30047;DHT22;16878;52.542;13.426;2022-12-20T13:25:32;7.70;99.90
30047;DHT22;16878;52.542;13.426;2022-12-20T13:28:41;7.70;99.90
30047;DHT22;16878;52.542;13.426;2022-12-20T13:30:47;7.60;99.90
30047;DHT22;16878;52.542;13.426;2022-12-20T13:33:49;7.60;99.90
30047;DHT22;16878;52.542;13.426;2022-12-20T13:41:20;7.60;99.90
30047;DHT22;16878;52.542;13.426;2022-12-20T13:43:50;7.60;99.90
30047;DHT22;16878;52.542;13.426;2022-12-20T13:49:03;7.70;99.90
30047;DHT22;16878;52.542;13.426;2022-12-20T13:51:30;7.70;99.90
30047;DHT22;16878;52.542;13.426;2022-12-20T13:54:03;7.70;99.90
30047;DHT22;16878;52.542;13.426;2022-12-20T13:56:45;7.70;99.90
30047;DHT22;16878;52.542;13.426;2022-12-20T13:59:13;7.60;99.90
30047;DHT22;16878;52.542;13.426;2022-12-20T14:01:50;7.60;99.90
30047;DHT22;16878;52.542;13.426;2022-12-20T14:04:19;7.60;99.90
30047;DHT22;16878;52.542;13.426;2022-12-20T14:06:58;7.60;99.90
30047;DHT22;16878;52.542;13.426;2022-12-20T14:09:26;7.50;99.90
30047;DHT22;16878;52.542;13.426;2022-12-20T14:11:52;7.50;99.90
30047;DHT22;16878;52.542;13.426;2022-12-20T14:14:18;7.50;99.90
30047;DHT22;16878;52.542;13.426;2022-12-20T14:16:43;7.50;99.90
30047;DHT22;16878;52.542;13.426;2022-12-20T14:19:13;7.50;99.90
30047;DHT22;16878;52.542;13.426;2022-12-20T14:21:40;7.40;99.90
30047;DHT22;16878;52.542;13.426;2022-12-20T14:24:08;7.40;99.90
30047;DHT22;16878;52.542;13.426;2022-12-20T14:26:41;7.40;99.90
30047;DHT22;16878;52.542;13.426;2022-12-20T14:29:15;7.40;99.90
30047;DHT22;16878;52.542;13.426;2022-12-20T14:31:44;7.40;99.90
30047;DHT22;16878;52.542;13.426;2022-12-20T14:34:11;7.40;99.90
30047;DHT22;16878;52.542;13.426;2022-12-20T14:36:39;7.50;99.90
30047;DHT22;16878;52.542;13.426;2022-12-20T14:41:54;7.40;99.90
30047;DHT22;16878;52.542;13.426;2022-12-20T14:44:20;7.40;99.90
30047;DHT22;16878;52.542;13.426;2022-12-20T14:46:51;7.40;99.90
30047;DHT22;16878;52.542;13.426;2022-12-20T14:51:46;7.30;99.90
30047;DHT22;16878;52.542;13.426;2022-12-20T14:54:30;7.30;99.90
30047;DHT22;16878;52.542;13.426;2022-12-20T14:56:55;7.20;99.90
30047;DHT22;16878;52.542;13.426;2022-12-20T14:59:27;7.20;99.90
30047;DHT22;16878;52.542;13.426;2022-12-20T15:01:53;7.30;99.90
30047;DHT22;16878;52.542;13.426;2022-12-20T15:06:53;7.30;99.90
30047;DHT22;16878;52.542;13.426;2022-12-20T15:09:18;7.30;99.90
30047;DHT22;16878;52.542;13.426;2022-12-20T15:11:44;7.30;99.90
30047;DHT22;16878;52.542;13.426;2022-12-20T15:14:20;7.30;99.90
30047;DHT22;16878;52.542;13.426;2022-12-20T15:16:47;7.30;99.90
30047;DHT22;16878;52.542;13.426;2022-12-20T15:19:13;7.30;99.90
30047;DHT22;16878;52.542;13.426;2022-12-20T15:21:39;7.20;99.90
30047;DHT22;16878;52.542;13.426;2022-12-20T15:24:17;7.20;99.90
30047;DHT22;16878;52.542;13.426;2022-12-20T15:26:46;7.20;99.90
30047;DHT22;16878;52.542;13.426;2022-12-20T15:29:15;7.20;99.90
30047;DHT22;16878;52.542;13.426;2022-12-20T15:31:41;7.20;99.90
30047;DHT22;16878;52.542;13.426;2022-12-20T15:34:14;7.20;99.90
30047;DHT22;16878;52.542;13.426;2022-12-20T15:36:42;7.20;99.90
30047;DHT22;16878;52.542;13.426;2022-12-20T15:39:08;7.20;99.90
30047;DHT22;16878;52.542;13.426;2022-12-20T15:41:34;7.20;99.90
30047;DHT22;16878;52.542;13.426;2022-12-20T15:44:10;7.20;99.90
30047;DHT22;16878;52.542;13.426;2022-12-20T15:46:37;7.20;99.90
30047;DHT22;16878;52.542;13.426;2022-12-20T15:49:02;7.10;99.90
30047;DHT22;16878;52.542;13.426;2022-12-20T15:51:32;7.10;99.90
30047;DHT22;16878;52.542;13.426;2022-12-20T15:53:59;7.10;99.90
30047;DHT22;16878;52.542;13.426;2022-12-20T15:56:25;7.10;99.90
30047;DHT22;16878;52.542;13.426;2022-12-20T15:58:51;7.10;99.90
30047;DHT22;16878;52.542;13.426;2022-12-20T16:01:20;7.10;99.90
30047;DHT22;16878;52.542;13.426;2022-12-20T16:03:46;7.10;99.90
30047;DHT22;16878;52.542;13.426;2022-12-20T16:06:12;7.10;99.90
30047;DHT22;16878;52.542;13.426;2022-12-20T16:08:38;7.20;99.90
30047;DHT22;16878;52.542;13.426;2022-12-20T16:11:04;7.10;99.90
30047;DHT22;16878;52.542;13.426;2022-12-20T16:13:30;7.10;99.90
30047;DHT22;16878;52.542;13.426;2022-12-20T16:15:56;7.10;99.90
30047;DHT22;16878;52.542;13.426;2022-12-20T16:18:21;7.10;99.90
30047;DHT22;16878;52.542;13.426;2022-12-20T16:20:47;7.10;99.90
30047;DHT22;16878;52.542;13.426;2022-12-20T16:23:16;7.10;99.90
30047;DHT22;16878;52.542;13.426;2022-12-20T16:25:43;7.10;99.90
30047;DHT22;16878;52.542;13.426;2022-12-20T16:28:09;7.10;99.90
30047;DHT22;16878;52.542;13.426;2022-12-20T16:30:34;7.00;99.90
30047;DHT22;16878;52.542;13.426;2022-12-20T16:33:00;7.10;99.90
30047;DHT22;16878;52.542;13.426;2022-12-20T16:35:33;7.10;99.90
30047;DHT22;16878;52.542;13.426;2022-12-20T16:38:00;7.10;99.90
30047;DHT22;16878;52.542;13.426;2022-12-20T16:40:27;7.10;99.90
30047;DHT22;16878;52.542;13.426;2022-12-20T16:42:53;7.00;99.90
30047;DHT22;16878;52.542;13.426;2022-12-20T16:45:20;7.00;99.90
30047;DHT22;16878;52.542;13.426;2022-12-20T16:47:46;7.00;99.90
30047;DHT22;16878;52.542;13.426;2022-12-20T16:50:12;6.90;99.90
30047;DHT22;16878;52.542;13.426;2022-12-20T16:52:37;6.90;99.90
30047;DHT22;16878;52.542;13.426;2022-12-20T16:55:03;6.90;99.90
30047;DHT22;16878;52.542;13.426;2022-12-20T16:57:32;6.90;99.90
30047;DHT22;16878;52.542;13.426;2022-12-20T16:59:57;6.90;99.90
30047;DHT22;16878;52.542;13.426;2022-12-20T17:04:48;6.90;99.90
30047;DHT22;16878;52.542;13.426;2022-12-20T17:07:17;6.90;99.90
30047;DHT22;16878;52.542;13.426;2022-12-20T17:09:42;6.80;99.90
30047;DHT22;16878;52.542;13.426;2022-12-20T17:12:12;6.80;99.90
30047;DHT22;16878;52.542;13.426;2022-12-20T17:14:39;6.80;99.90